createdAt,value
2022-07-29T00:00:58.656Z,61.99
2022-07-29T00:04:41.511Z,62.46
2022-07-29T00:08:24.298Z,63.20
2022-07-29T00:12:10.170Z,63.75
2022-07-29T00:15:53.130Z,64.20
2022-07-29T00:19:36.182Z,65.21
2022-07-29T00:23:18.930Z,64.88
2022-07-29T00:27:02.005Z,65.48
2022-07-29T00:30:46.138Z,64.35
2022-07-29T00:34:46.471Z,63.52
2022-07-29T00:38:29.209Z,62.60
2022-07-29T00:42:12.016Z,62.39
2022-07-29T00:45:56.166Z,62.08
2022-07-29T00:49:39.321Z,61.67
2022-07-29T00:53:22.305Z,61.49
2022-07-29T00:57:06.604Z,61.24
2022-07-29T01:00:49.703Z,60.78
2022-07-29T01:04:34.452Z,60.13
2022-07-29T01:08:18.165Z,59.36
2022-07-29T01:12:01.296Z,58.12
2022-07-29T01:15:49.168Z,57.81
2022-07-29T01:19:50.340Z,58.28
2022-07-29T01:23:49.089Z,58.10
2022-07-29T01:27:41.405Z,57.71
2022-07-29T01:31:32.578Z,57.48
2022-07-29T01:35:21.374Z,57.14
2022-07-29T01:39:08.892Z,57.01
2022-07-29T01:42:54.129Z,57.23
2022-07-29T01:46:41.107Z,57.81
2022-07-29T01:50:29.129Z,58.31
2022-07-29T01:54:15.748Z,58.67
2022-07-29T01:57:59.867Z,58.41
2022-07-29T02:01:45.896Z,58.28
2022-07-29T02:05:29.694Z,58.67
2022-07-29T02:09:14.466Z,58.82
2022-07-29T02:12:58.443Z,59.21
2022-07-29T02:16:43.531Z,59.03
2022-07-29T02:20:27.638Z,59.35
2022-07-29T02:24:14.095Z,59.38
2022-07-29T02:27:57.709Z,59.80
2022-07-29T02:31:44.455Z,59.99
2022-07-29T02:35:27.884Z,60.48
2022-07-29T02:39:18.262Z,60.89
2022-07-29T02:43:01.628Z,61.19
2022-07-29T02:46:50.300Z,61.27
2022-07-29T02:50:36.916Z,61.74
2022-07-29T02:54:28.848Z,62.36
2022-07-29T02:58:16.497Z,62.69
2022-07-29T03:02:01.697Z,62.92
2022-07-29T03:05:44.574Z,63.15
2022-07-29T03:09:27.583Z,63.06
2022-07-29T03:13:10.565Z,63.69
2022-07-29T03:16:56.616Z,64.41
2022-07-29T03:20:41.510Z,64.63
2022-07-29T03:24:28.957Z,64.99
2022-07-29T03:28:11.811Z,64.41
2022-07-29T03:31:54.928Z,64.58
2022-07-29T03:35:38.107Z,65.13
2022-07-29T03:39:25.422Z,65.22
2022-07-29T03:43:10.326Z,65.06
2022-07-29T03:46:55.227Z,65.07
2022-07-29T03:50:38.072Z,64.99
2022-07-29T03:54:22.357Z,65.25
2022-07-29T03:58:05.441Z,65.05
2022-07-29T04:01:48.841Z,65.36
2022-07-29T04:05:31.850Z,65.65
2022-07-29T04:09:14.677Z,65.30
2022-07-29T04:12:58.822Z,65.41
2022-07-29T04:16:41.621Z,65.38
2022-07-29T04:20:24.470Z,65.70
2022-07-29T04:24:07.952Z,65.81
2022-07-29T04:28:02.679Z,65.65
2022-07-29T04:31:46.855Z,65.76
2022-07-29T04:35:29.724Z,65.44
2022-07-29T04:39:12.466Z,64.95
2022-07-29T04:42:55.242Z,64.98
2022-07-29T04:46:38.185Z,66.13
2022-07-29T04:50:22.355Z,66.53
2022-07-29T04:54:05.357Z,65.93
2022-07-29T04:57:48.130Z,65.68
2022-07-29T05:01:30.959Z,65.10
2022-07-29T05:05:13.871Z,65.05
2022-07-29T05:08:59.331Z,64.61
2022-07-29T05:12:42.167Z,63.14
2022-07-29T05:16:24.954Z,63.54
2022-07-29T05:20:09.221Z,63.67
2022-07-29T05:23:52.024Z,63.20
2022-07-29T05:27:36.149Z,63.96
2022-07-29T05:31:18.936Z,63.66
2022-07-29T05:35:01.851Z,64.66
2022-07-29T05:38:44.573Z,63.92
2022-07-29T05:42:27.650Z,63.96
2022-07-29T05:46:11.829Z,63.89
2022-07-29T05:49:54.961Z,64.81
2022-07-29T05:53:38.208Z,65.24
2022-07-29T05:57:22.018Z,64.22
2022-07-29T06:01:07.279Z,64.92
2022-07-29T06:04:51.528Z,64.58
2022-07-29T06:08:34.905Z,64.68
2022-07-29T06:12:17.676Z,63.93
2022-07-29T06:16:00.505Z,63.60
2022-07-29T06:19:43.291Z,63.12
2022-07-29T06:23:27.403Z,60.84
2022-07-29T06:27:10.768Z,59.99
2022-07-29T06:30:53.561Z,59.86
2022-07-29T06:34:36.394Z,58.67
2022-07-29T06:38:31.798Z,59.97
2022-07-29T06:42:18.325Z,59.30
2022-07-29T06:46:02.326Z,58.59
2022-07-29T06:49:45.247Z,58.70
2022-07-29T06:53:31.448Z,58.71
2022-07-29T06:57:14.199Z,57.54
2022-07-29T07:00:58.769Z,57.91
2022-07-29T07:04:41.582Z,57.49
2022-07-29T07:08:24.745Z,57.42
2022-07-29T07:12:07.941Z,56.86
2022-07-29T07:15:51.768Z,55.41
2022-07-29T07:19:36.108Z,54.23
2022-07-29T07:23:18.917Z,55.40
2022-07-29T07:27:01.731Z,55.96
2022-07-29T07:30:44.507Z,56.18
2022-07-29T07:34:29.739Z,55.20
2022-07-29T07:38:14.091Z,55.15
2022-07-29T07:41:56.881Z,54.39
2022-07-29T07:45:41.346Z,54.22
2022-07-29T07:49:24.307Z,51.94
2022-07-29T07:53:07.180Z,52.15
2022-07-29T07:56:53.333Z,53.12
2022-07-29T08:00:36.382Z,53.21
2022-07-29T08:04:25.011Z,52.16
2022-07-29T08:08:10.272Z,52.26
2022-07-29T08:11:54.925Z,52.03
2022-07-29T08:15:37.705Z,51.95
2022-07-29T08:19:20.519Z,51.82
2022-07-29T08:23:03.507Z,51.48
2022-07-29T08:26:46.534Z,50.65
2022-07-29T08:30:30.696Z,51.38
2022-07-29T08:34:13.637Z,50.67
2022-07-29T08:37:57.785Z,50.07
2022-07-29T08:41:40.777Z,49.65
2022-07-29T08:45:47.724Z,50.08
2022-07-29T08:49:31.249Z,48.52
2022-07-29T08:53:15.462Z,49.14
2022-07-29T08:57:00.761Z,49.35
2022-07-29T09:00:47.192Z,48.65
2022-07-29T09:04:36.452Z,49.15
2022-07-29T09:08:21.032Z,49.23
2022-07-29T09:12:04.980Z,50.09
2022-07-29T09:15:49.160Z,49.14
2022-07-29T09:19:34.433Z,48.76
2022-07-29T09:23:23.958Z,48.81
2022-07-29T09:27:13.325Z,49.01
2022-07-29T09:31:00.128Z,47.96
2022-07-29T09:34:42.890Z,48.82
2022-07-29T09:38:25.645Z,48.28
2022-07-29T09:42:08.449Z,49.19
2022-07-29T09:45:51.197Z,49.25
2022-07-29T09:49:35.669Z,49.11
2022-07-29T09:53:32.708Z,49.98
2022-07-29T09:57:30.591Z,48.78
2022-07-29T10:01:14.459Z,48.58
2022-07-29T10:04:58.636Z,49.08
2022-07-29T10:08:43.638Z,49.07
2022-07-29T10:12:26.632Z,48.41
2022-07-29T10:16:09.738Z,49.08
2022-07-29T10:19:52.539Z,49.79
2022-07-29T10:23:46.517Z,49.57
2022-07-29T10:27:30.120Z,48.97
2022-07-29T10:31:21.480Z,49.49
2022-07-29T10:35:14.350Z,49.74
2022-07-29T10:39:03.700Z,50.05
2022-07-29T10:42:46.919Z,50.22
2022-07-29T10:46:31.066Z,50.27
2022-07-29T10:50:17.414Z,50.51
2022-07-29T10:54:05.894Z,49.81
2022-07-29T10:58:13.168Z,49.92
2022-07-29T11:02:10.834Z,49.16
2022-07-29T11:05:59.878Z,49.84
2022-07-29T11:09:46.377Z,49.76
2022-07-29T11:13:55.960Z,49.21
2022-07-29T11:18:14.990Z,45.39
2022-07-29T11:22:00.268Z,46.47
2022-07-29T11:25:52.410Z,46.24
2022-07-29T11:29:39.908Z,45.15
2022-07-29T11:33:54.542Z,45.21
2022-07-29T11:37:33.683Z,44.88
2022-07-29T11:41:28.718Z,44.91
2022-07-29T11:49:21.995Z,42.60
2022-07-29T11:53:12.216Z,42.79
2022-07-29T11:56:56.671Z,42.16
2022-07-29T12:00:41.116Z,42.94
2022-07-29T12:04:24.859Z,42.60
2022-07-29T12:07:03.939Z,42.49
2022-07-29T12:08:12.748Z,43.62
2022-07-29T12:12:05.269Z,43.00
2022-07-29T12:15:54.731Z,42.90
2022-07-29T12:19:44.656Z,43.58
2022-07-29T12:23:29.369Z,42.75
2022-07-29T12:27:29.517Z,43.20
2022-07-29T12:31:41.925Z,42.24
2022-07-29T12:35:20.707Z,43.10
2022-07-29T12:39:03.942Z,43.14
2022-07-29T12:43:10.188Z,42.30
2022-07-29T12:47:04.108Z,41.46
2022-07-29T12:50:58.095Z,41.07
2022-07-29T12:54:48.741Z,42.51
2022-07-29T12:58:35.693Z,42.69
2022-07-29T13:02:24.191Z,43.91
2022-07-29T13:06:07.323Z,44.29
2022-07-29T13:09:50.282Z,44.64
2022-07-29T13:13:34.628Z,44.89
2022-07-29T13:17:18.247Z,45.14
2022-07-29T13:21:12.882Z,45.28
2022-07-29T13:24:57.423Z,46.27
2022-07-29T13:28:44.098Z,46.32
2022-07-29T13:32:28.570Z,46.79
2022-07-29T13:36:11.915Z,47.18
2022-07-29T13:39:55.237Z,47.59
2022-07-29T13:43:38.047Z,47.91
2022-07-29T13:47:22.824Z,48.91
2022-07-29T13:51:15.671Z,47.63
2022-07-29T13:54:58.649Z,48.19
2022-07-29T13:58:41.514Z,48.37
2022-07-29T14:02:26.280Z,48.40
2022-07-29T14:06:09.247Z,47.48
2022-07-29T14:09:52.209Z,47.84
2022-07-29T14:13:35.055Z,48.18
2022-07-29T14:17:17.923Z,47.96
2022-07-29T14:21:02.354Z,47.86
2022-07-29T14:24:45.336Z,47.75
2022-07-29T14:28:28.112Z,47.33
2022-07-29T14:32:12.413Z,47.20
2022-07-29T14:35:55.230Z,46.81
2022-07-29T14:39:45.393Z,46.28
2022-07-29T14:43:28.296Z,46.59
2022-07-29T14:47:11.276Z,47.19
2022-07-29T14:50:54.231Z,47.16
2022-07-29T14:54:37.010Z,48.43
2022-07-29T14:58:23.220Z,49.14
2022-07-29T15:02:06.062Z,49.23
2022-07-29T15:05:48.881Z,49.46
2022-07-29T15:09:31.705Z,48.75
2022-07-29T15:13:19.115Z,49.37
2022-07-29T15:17:04.561Z,50.15
2022-07-29T15:20:48.257Z,49.70
2022-07-29T15:24:30.991Z,50.01
2022-07-29T15:28:16.270Z,50.63
2022-07-29T15:31:59.388Z,51.79
2022-07-29T15:35:43.612Z,53.24
2022-07-29T15:39:26.387Z,53.96
2022-07-29T15:43:09.349Z,53.97
2022-07-29T15:47:07.319Z,54.11
2022-07-29T15:50:52.268Z,54.54
2022-07-29T15:54:35.849Z,55.17
2022-07-29T15:58:18.902Z,55.43
2022-07-29T16:02:01.773Z,56.11
2022-07-29T16:05:44.782Z,56.13
2022-07-29T16:09:28.949Z,56.54
2022-07-29T16:13:11.697Z,56.59
2022-07-29T16:17:03.702Z,56.81
2022-07-29T16:20:46.578Z,56.79
2022-07-29T16:24:31.551Z,56.36
2022-07-29T16:28:14.352Z,56.61
2022-07-29T16:31:57.165Z,57.13
2022-07-29T16:35:40.424Z,57.17
2022-07-29T16:39:23.237Z,57.38
2022-07-29T16:43:07.374Z,57.77
2022-07-29T16:46:50.158Z,57.93
2022-07-29T16:50:39.490Z,57.50
2022-07-29T16:54:22.259Z,57.99
2022-07-29T16:58:05.318Z,58.31
2022-07-29T17:01:49.993Z,58.40
2022-07-29T17:05:52.511Z,56.91
2022-07-29T17:09:37.415Z,53.85
2022-07-29T17:13:20.431Z,56.91
2022-07-29T17:17:05.507Z,58.42
2022-07-29T17:20:56.584Z,59.76
2022-07-29T17:24:40.289Z,59.94
2022-07-29T17:28:23.825Z,60.29
2022-07-29T17:32:09.039Z,60.13
2022-07-29T17:36:09.349Z,57.86
2022-07-29T17:39:52.132Z,58.24
2022-07-29T17:43:35.039Z,60.06
2022-07-29T17:47:19.193Z,61.60
2022-07-29T17:51:01.979Z,61.88
2022-07-29T17:54:44.728Z,62.56
2022-07-29T17:58:33.100Z,65.34
2022-07-29T18:02:16.055Z,66.32
2022-07-29T18:06:00.786Z,67.31
2022-07-29T18:09:43.586Z,67.80
2022-07-29T18:13:30.190Z,66.11
2022-07-29T18:17:13.450Z,66.23
2022-07-29T18:20:56.531Z,65.89
2022-07-29T18:24:40.612Z,63.53
2022-07-29T18:28:23.558Z,64.38
2022-07-29T18:32:07.345Z,64.95
2022-07-29T18:36:04.176Z,65.74
2022-07-29T18:39:59.371Z,66.10
2022-07-29T18:43:42.360Z,66.78
2022-07-29T18:47:25.268Z,66.97
2022-07-29T18:51:15.223Z,69.29
2022-07-29T18:55:01.221Z,71.31
2022-07-29T18:58:43.985Z,71.81
2022-07-29T19:02:27.849Z,73.35
2022-07-29T19:06:10.902Z,73.95
2022-07-29T19:09:56.661Z,75.05
2022-07-29T19:13:41.072Z,76.63
2022-07-29T19:17:24.115Z,79.08
2022-07-29T19:21:06.968Z,81.60
2022-07-29T19:24:50.356Z,83.02
2022-07-29T19:28:33.351Z,83.55
2022-07-29T19:32:24.863Z,83.51
2022-07-29T19:36:08.534Z,82.49
2022-07-29T19:39:51.350Z,83.50
2022-07-29T19:43:50.994Z,82.43
2022-07-29T19:47:36.513Z,81.60
2022-07-29T19:51:19.386Z,83.05
2022-07-29T19:55:07.341Z,82.75
2022-07-29T19:58:50.705Z,82.25
2022-07-29T20:02:36.647Z,81.21
2022-07-29T20:06:19.626Z,81.47
2022-07-29T20:10:02.587Z,81.76
2022-07-29T20:13:45.397Z,80.92
2022-07-29T20:17:28.914Z,80.74
2022-07-29T20:21:13.051Z,81.92
2022-07-29T20:24:55.797Z,83.73
2022-07-29T20:28:40.160Z,85.00
2022-07-29T20:32:23.112Z,87.38
2022-07-29T20:36:06.601Z,85.54
2022-07-29T20:39:50.865Z,84.82
2022-07-29T20:43:35.973Z,84.22
2022-07-29T20:47:22.395Z,83.89
2022-07-29T20:51:05.196Z,84.69
2022-07-29T20:54:47.973Z,84.12
2022-07-29T20:58:32.643Z,84.07
2022-07-29T21:02:17.354Z,82.97
2022-07-29T21:06:00.511Z,84.51
2022-07-29T21:09:43.515Z,84.43
2022-07-29T21:13:26.531Z,83.30
2022-07-29T21:17:10.957Z,83.07
2022-07-29T21:20:53.953Z,83.28
2022-07-29T21:24:36.750Z,84.20
2022-07-29T21:28:29.489Z,86.17
2022-07-29T21:32:13.647Z,87.07
2022-07-29T21:36:46.118Z,87.91
2022-07-29T21:40:14.362Z,88.76
2022-07-29T21:43:59.947Z,89.62
2022-07-29T21:47:45.637Z,90.97
2022-07-29T21:51:28.494Z,90.73
2022-07-29T21:55:11.710Z,91.58
2022-07-29T21:58:54.596Z,90.84
2022-07-29T22:02:37.521Z,91.39
2022-07-29T22:06:21.637Z,91.37
2022-07-29T22:10:05.127Z,93.49
2022-07-29T22:13:48.097Z,95.94
2022-07-29T22:17:30.868Z,93.59
2022-07-29T22:21:13.746Z,93.39
2022-07-29T22:24:57.847Z,91.17
2022-07-29T22:28:40.650Z,91.17
2022-07-29T22:32:23.508Z,91.35
2022-07-29T22:36:06.792Z,91.82
2022-07-29T22:39:49.523Z,92.72
2022-07-29T22:43:33.629Z,94.05
2022-07-29T22:47:16.525Z,94.93
2022-07-29T22:50:59.276Z,97.09
2022-07-29T22:54:42.062Z,97.80
2022-07-29T22:58:24.823Z,96.86
2022-07-29T23:02:09.006Z,97.21
2022-07-29T23:05:51.970Z,97.07
2022-07-29T23:09:34.729Z,96.23
2022-07-29T23:13:18.058Z,95.65
2022-07-29T23:17:01.040Z,96.77
2022-07-29T23:20:46.630Z,94.96
2022-07-29T23:24:29.405Z,95.25
2022-07-29T23:28:13.284Z,96.22
2022-07-29T23:31:56.190Z,95.29
2022-07-29T23:35:38.954Z,94.28
2022-07-29T23:39:23.163Z,95.17
2022-07-29T23:43:08.896Z,94.95
2022-07-29T23:46:51.804Z,93.21
2022-07-29T23:50:34.508Z,93.48
2022-07-29T23:54:17.264Z,93.87
2022-07-29T23:58:02.922Z,94.15
